sensor_id;sensor_type;location;lat;lon;timestamp;temperature;humidity
21502;DHT22;27639;48.674;9.242;2023-04-03T00:00:18;7.80;53.00
21502;DHT22;27639;48.674;9.242;2023-04-03T00:02:43;7.80;53.00
21502;DHT22;27639;48.674;9.242;2023-04-03T00:05:09;7.80;53.00
21502;DHT22;27639;48.674;9.242;2023-04-03T00:07:34;7.80;53.10
21502;DHT22;27639;48.674;9.242;2023-04-03T00:10:00;7.80;53.00
21502;DHT22;27639;48.674;9.242;2023-04-03T00:12:25;7.70;53.00
21502;DHT22;27639;48.674;9.242;2023-04-03T00:14:51;7.80;53.10
21502;DHT22;27639;48.674;9.242;2023-04-03T00:17:17;7.80;53.00
21502;DHT22;27639;48.674;9.242;2023-04-03T00:19:42;7.80;53.00
21502;DHT22;27639;48.674;9.242;2023-04-03T00:22:08;7.80;53.00
21502;DHT22;27639;48.674;9.242;2023-04-03T00:24:33;7.80;52.90
21502;DHT22;27639;48.674;9.242;2023-04-03T00:26:59;7.80;52.90
21502;DHT22;27639;48.674;9.242;2023-04-03T00:29:25;7.70;53.00
21502;DHT22;27639;48.674;9.242;2023-04-03T00:31:50;7.70;53.10
21502;DHT22;27639;48.674;9.242;2023-04-03T00:34:16;7.70;53.00
21502;DHT22;27639;48.674;9.242;2023-04-03T00:36:41;7.70;53.00
21502;DHT22;27639;48.674;9.242;2023-04-03T00:39:07;7.70;53.00
21502;DHT22;27639;48.674;9.242;2023-04-03T00:41:32;7.70;53.10
21502;DHT22;27639;48.674;9.242;2023-04-03T00:43:58;7.70;53.00
21502;DHT22;27639;48.674;9.242;2023-04-03T00:46:23;7.80;53.00
21502;DHT22;27639;48.674;9.242;2023-04-03T00:48:49;7.80;53.00
21502;DHT22;27639;48.674;9.242;2023-04-03T00:51:24;7.80;53.00
21502;DHT22;27639;48.674;9.242;2023-04-03T00:53:56;7.80;52.90
21502;DHT22;27639;48.674;9.242;2023-04-03T00:56:25;7.80;52.90
21502;DHT22;27639;48.674;9.242;2023-04-03T00:58:59;7.80;52.80
21502;DHT22;27639;48.674;9.242;2023-04-03T01:01:27;7.80;52.70
21502;DHT22;27639;48.674;9.242;2023-04-03T01:03:53;7.60;53.00
21502;DHT22;27639;48.674;9.242;2023-04-03T01:06:24;7.60;53.10
21502;DHT22;27639;48.674;9.242;2023-04-03T01:08:51;7.70;53.00
21502;DHT22;27639;48.674;9.242;2023-04-03T01:11:17;7.70;53.00
21502;DHT22;27639;48.674;9.242;2023-04-03T01:13:43;7.70;53.60
21502;DHT22;27639;48.674;9.242;2023-04-03T01:16:08;7.70;53.60
21502;DHT22;27639;48.674;9.242;2023-04-03T01:18:36;7.70;53.00
21502;DHT22;27639;48.674;9.242;2023-04-03T01:23:50;7.70;53.00
21502;DHT22;27639;48.674;9.242;2023-04-03T01:26:18;7.60;52.90
21502;DHT22;27639;48.674;9.242;2023-04-03T01:28:45;7.60;52.90
21502;DHT22;27639;48.674;9.242;2023-04-03T01:33:41;7.60;52.70
21502;DHT22;27639;48.674;9.242;2023-04-03T01:36:07;7.60;52.90
21502;DHT22;27639;48.674;9.242;2023-04-03T01:38:33;7.60;52.80
21502;DHT22;27639;48.674;9.242;2023-04-03T01:40:59;7.60;52.90
21502;DHT22;27639;48.674;9.242;2023-04-03T01:43:24;7.60;52.80
21502;DHT22;27639;48.674;9.242;2023-04-03T01:45:50;7.50;52.80
21502;DHT22;27639;48.674;9.242;2023-04-03T01:48:17;7.50;52.80
21502;DHT22;27639;48.674;9.242;2023-04-03T01:50:43;7.50;52.80
21502;DHT22;27639;48.674;9.242;2023-04-03T01:53:09;7.50;52.80
21502;DHT22;27639;48.674;9.242;2023-04-03T01:55:34;7.50;52.70
21502;DHT22;27639;48.674;9.242;2023-04-03T01:58:00;7.50;52.70
21502;DHT22;27639;48.674;9.242;2023-04-03T02:00:25;7.50;52.70
21502;DHT22;27639;48.674;9.242;2023-04-03T02:02:52;7.60;52.70
21502;DHT22;27639;48.674;9.242;2023-04-03T02:05:17;7.50;52.70
21502;DHT22;27639;48.674;9.242;2023-04-03T02:07:43;7.60;52.80
21502;DHT22;27639;48.674;9.242;2023-04-03T02:10:09;7.50;52.80
21502;DHT22;27639;48.674;9.242;2023-04-03T02:12:34;7.60;52.60
21502;DHT22;27639;48.674;9.242;2023-04-03T02:15:00;7.60;52.40
21502;DHT22;27639;48.674;9.242;2023-04-03T02:17:26;7.50;52.50
21502;DHT22;27639;48.674;9.242;2023-04-03T02:19:51;7.50;52.40
21502;DHT22;27639;48.674;9.242;2023-04-03T02:22:17;7.60;52.40
21502;DHT22;27639;48.674;9.242;2023-04-03T02:24:43;7.60;52.30
21502;DHT22;27639;48.674;9.242;2023-04-03T02:27:09;7.60;52.20
21502;DHT22;27639;48.674;9.242;2023-04-03T02:29:34;7.60;52.00
21502;DHT22;27639;48.674;9.242;2023-04-03T02:32:00;7.50;51.70
21502;DHT22;27639;48.674;9.242;2023-04-03T02:34:26;7.50;51.80
21502;DHT22;27639;48.674;9.242;2023-04-03T02:36:51;7.50;51.90
21502;DHT22;27639;48.674;9.242;2023-04-03T02:39:17;7.50;51.80
21502;DHT22;27639;48.674;9.242;2023-04-03T02:41:42;7.50;51.80
21502;DHT22;27639;48.674;9.242;2023-04-03T02:44:09;7.50;51.70
21502;DHT22;27639;48.674;9.242;2023-04-03T02:46:35;7.40;51.50
21502;DHT22;27639;48.674;9.242;2023-04-03T02:49:01;7.40;51.40
21502;DHT22;27639;48.674;9.242;2023-04-03T02:51:26;7.40;51.50
21502;DHT22;27639;48.674;9.242;2023-04-03T02:53:52;7.40;52.20
21502;DHT22;27639;48.674;9.242;2023-04-03T02:56:17;7.30;51.60
21502;DHT22;27639;48.674;9.242;2023-04-03T02:58:44;7.30;51.60
21502;DHT22;27639;48.674;9.242;2023-04-03T03:01:10;7.40;51.70
21502;DHT22;27639;48.674;9.242;2023-04-03T03:03:36;7.40;51.50
21502;DHT22;27639;48.674;9.242;2023-04-03T03:08:31;7.40;51.60
21502;DHT22;27639;48.674;9.242;2023-04-03T03:10:57;7.40;51.60
21502;DHT22;27639;48.674;9.242;2023-04-03T03:13:22;7.40;51.50
21502;DHT22;27639;48.674;9.242;2023-04-03T03:15:48;7.40;51.50
21502;DHT22;27639;48.674;9.242;2023-04-03T03:18:13;7.40;51.40
21502;DHT22;27639;48.674;9.242;2023-04-03T03:20:39;7.40;51.50
21502;DHT22;27639;48.674;9.242;2023-04-03T03:23:05;7.40;51.60
21502;DHT22;27639;48.674;9.242;2023-04-03T03:25:30;7.40;51.60
21502;DHT22;27639;48.674;9.242;2023-04-03T03:27:56;7.40;51.50
21502;DHT22;27639;48.674;9.242;2023-04-03T03:30:22;7.40;51.50
21502;DHT22;27639;48.674;9.242;2023-04-03T03:32:47;7.50;51.60
21502;DHT22;27639;48.674;9.242;2023-04-03T03:35:13;7.40;51.50
21502;DHT22;27639;48.674;9.242;2023-04-03T03:37:38;7.40;51.40
21502;DHT22;27639;48.674;9.242;2023-04-03T03:40:05;7.50;51.50
21502;DHT22;27639;48.674;9.242;2023-04-03T03:42:30;7.50;51.50
21502;DHT22;27639;48.674;9.242;2023-04-03T03:44:56;7.50;51.60
21502;DHT22;27639;48.674;9.242;2023-04-03T03:47:22;7.50;51.40
21502;DHT22;27639;48.674;9.242;2023-04-03T03:49:47;7.60;51.20
21502;DHT22;27639;48.674;9.242;2023-04-03T03:52:13;7.50;51.10
21502;DHT22;27639;48.674;9.242;2023-04-03T03:54:38;7.50;51.10
21502;DHT22;27639;48.674;9.242;2023-04-03T03:57:04;7.50;51.10
21502;DHT22;27639;48.674;9.242;2023-04-03T03:59:30;7.50;51.20
21502;DHT22;27639;48.674;9.242;2023-04-03T04:01:55;7.60;51.00
21502;DHT22;27639;48.674;9.242;2023-04-03T04:04:21;7.50;51.20
21502;DHT22;27639;48.674;9.242;2023-04-03T04:06:47;7.40;51.20
21502;DHT22;27639;48.674;9.242;2023-04-03T04:09:12;7.40;51.00
21502;DHT22;27639;48.674;9.242;2023-04-03T04:11:38;7.40;51.20
21502;DHT22;27639;48.674;9.242;2023-04-03T04:14:06;7.40;51.40
21502;DHT22;27639;48.674;9.242;2023-04-03T04:16:31;7.30;51.10
21502;DHT22;27639;48.674;9.242;2023-04-03T04:18:57;7.30;51.10
21502;DHT22;27639;48.674;9.242;2023-04-03T04:21:23;7.40;51.20
21502;DHT22;27639;48.674;9.242;2023-04-03T04:23:48;7.40;51.00
21502;DHT22;27639;48.674;9.242;2023-04-03T04:26:14;7.40;50.90
21502;DHT22;27639;48.674;9.242;2023-04-03T04:28:39;7.40;51.00
21502;DHT22;27639;48.674;9.242;2023-04-03T04:31:05;7.40;50.90
21502;DHT22;27639;48.674;9.242;2023-04-03T04:33:30;7.40;50.90
21502;DHT22;27639;48.674;9.242;2023-04-03T04:35:56;7.40;50.60
21502;DHT22;27639;48.674;9.242;2023-04-03T04:38:21;7.30;50.60
21502;DHT22;27639;48.674;9.242;2023-04-03T04:40:48;7.40;50.70
21502;DHT22;27639;48.674;9.242;2023-04-03T04:43:13;7.40;50.20
21502;DHT22;27639;48.674;9.242;2023-04-03T04:45:40;7.40;50.40
21502;DHT22;27639;48.674;9.242;2023-04-03T04:48:06;7.40;50.20
21502;DHT22;27639;48.674;9.242;2023-04-03T04:50:32;7.30;50.10
21502;DHT22;27639;48.674;9.242;2023-04-03T04:52:57;7.40;50.10
21502;DHT22;27639;48.674;9.242;2023-04-03T04:55:23;7.40;50.00
21502;DHT22;27639;48.674;9.242;2023-04-03T04:57:48;7.40;50.00
21502;DHT22;27639;48.674;9.242;2023-04-03T05:00:15;7.40;49.80
21502;DHT22;27639;48.674;9.242;2023-04-03T05:02:41;7.40;49.60
21502;DHT22;27639;48.674;9.242;2023-04-03T05:05:07;7.40;49.50
21502;DHT22;27639;48.674;9.242;2023-04-03T05:07:32;7.40;49.20
21502;DHT22;27639;48.674;9.242;2023-04-03T05:09:58;7.40;49.30
21502;DHT22;27639;48.674;9.242;2023-04-03T05:12:24;7.30;49.00
21502;DHT22;27639;48.674;9.242;2023-04-03T05:14:50;7.40;49.00
21502;DHT22;27639;48.674;9.242;2023-04-03T05:17:15;7.40;49.00
21502;DHT22;27639;48.674;9.242;2023-04-03T05:19:41;7.40;49.10
21502;DHT22;27639;48.674;9.242;2023-04-03T05:22:06;7.40;49.10
21502;DHT22;27639;48.674;9.242;2023-04-03T05:24:32;7.40;48.70
21502;DHT22;27639;48.674;9.242;2023-04-03T05:26:58;7.40;49.00
21502;DHT22;27639;48.674;9.242;2023-04-03T05:29:24;7.40;48.90
21502;DHT22;27639;48.674;9.242;2023-04-03T05:31:50;7.50;48.90
21502;DHT22;27639;48.674;9.242;2023-04-03T05:34:16;7.50;48.90
21502;DHT22;27639;48.674;9.242;2023-04-03T05:36:41;7.60;48.70
21502;DHT22;27639;48.674;9.242;2023-04-03T05:39:07;7.60;48.50
21502;DHT22;27639;48.674;9.242;2023-04-03T05:41:33;7.60;48.50
21502;DHT22;27639;48.674;9.242;2023-04-03T05:43:59;7.60;48.30
21502;DHT22;27639;48.674;9.242;2023-04-03T05:46:25;7.50;48.40
21502;DHT22;27639;48.674;9.242;2023-04-03T05:48:50;7.60;48.30
21502;DHT22;27639;48.674;9.242;2023-04-03T05:51:22;7.60;48.30
21502;DHT22;27639;48.674;9.242;2023-04-03T05:53:49;7.60;48.10
21502;DHT22;27639;48.674;9.242;2023-04-03T05:56:17;7.60;48.00
21502;DHT22;27639;48.674;9.242;2023-04-03T05:58:43;7.60;47.60
21502;DHT22;27639;48.674;9.242;2023-04-03T06:01:08;7.60;47.90
21502;DHT22;27639;48.674;9.242;2023-04-03T06:03:34;7.50;47.80
21502;DHT22;27639;48.674;9.242;2023-04-03T06:06:02;7.50;48.00
21502;DHT22;27639;48.674;9.242;2023-04-03T06:08:29;7.60;47.70
21502;DHT22;27639;48.674;9.242;2023-04-03T06:10:54;7.50;47.90
21502;DHT22;27639;48.674;9.242;2023-04-03T06:13:21;7.50;48.00
21502;DHT22;27639;48.674;9.242;2023-04-03T06:15:47;7.50;47.80
21502;DHT22;27639;48.674;9.242;2023-04-03T06:18:12;7.50;48.00
21502;DHT22;27639;48.674;9.242;2023-04-03T06:20:38;7.50;48.00
21502;DHT22;27639;48.674;9.242;2023-04-03T06:23:04;7.50;48.20
21502;DHT22;27639;48.674;9.242;2023-04-03T06:25:29;7.60;47.90
21502;DHT22;27639;48.674;9.242;2023-04-03T06:27:57;7.60;47.70
21502;DHT22;27639;48.674;9.242;2023-04-03T06:30:22;7.60;47.50
21502;DHT22;27639;48.674;9.242;2023-04-03T06:32:48;7.60;47.90
21502;DHT22;27639;48.674;9.242;2023-04-03T06:35:13;7.60;48.10
21502;DHT22;27639;48.674;9.242;2023-04-03T06:37:39;7.70;47.90
21502;DHT22;27639;48.674;9.242;2023-04-03T06:40:05;7.70;47.60
21502;DHT22;27639;48.674;9.242;2023-04-03T06:42:31;7.70;47.50
21502;DHT22;27639;48.674;9.242;2023-04-03T06:44:57;7.70;47.40
21502;DHT22;27639;48.674;9.242;2023-04-03T06:47:22;7.70;47.50
21502;DHT22;27639;48.674;9.242;2023-04-03T06:49:48;7.70;48.00
21502;DHT22;27639;48.674;9.242;2023-04-03T06:52:13;7.70;47.80
21502;DHT22;27639;48.674;9.242;2023-04-03T06:54:40;7.70;47.80
21502;DHT22;27639;48.674;9.242;2023-04-03T06:57:06;7.80;47.70
21502;DHT22;27639;48.674;9.242;2023-04-03T06:59:32;7.80;48.00
21502;DHT22;27639;48.674;9.242;2023-04-03T07:01:57;7.80;48.10
21502;DHT22;27639;48.674;9.242;2023-04-03T07:04:25;7.80;48.20
21502;DHT22;27639;48.674;9.242;2023-04-03T07:06:51;7.90;48.40
21502;DHT22;27639;48.674;9.242;2023-04-03T07:09:18;7.90;48.40
21502;DHT22;27639;48.674;9.242;2023-04-03T07:11:44;7.90;48.40
21502;DHT22;27639;48.674;9.242;2023-04-03T07:14:10;8.00;48.50
21502;DHT22;27639;48.674;9.242;2023-04-03T07:16:35;8.20;48.40
21502;DHT22;27639;48.674;9.242;2023-04-03T07:19:01;8.20;48.30
21502;DHT22;27639;48.674;9.242;2023-04-03T07:21:27;8.30;48.30
21502;DHT22;27639;48.674;9.242;2023-04-03T07:23:53;8.30;48.00
21502;DHT22;27639;48.674;9.242;2023-04-03T07:26:19;8.40;47.60
21502;DHT22;27639;48.674;9.242;2023-04-03T07:28:46;8.30;48.10
21502;DHT22;27639;48.674;9.242;2023-04-03T07:31:15;8.40;48.00
21502;DHT22;27639;48.674;9.242;2023-04-03T07:33:42;8.40;47.80
21502;DHT22;27639;48.674;9.242;2023-04-03T07:36:09;8.40;47.80
21502;DHT22;27639;48.674;9.242;2023-04-03T07:38:36;8.40;48.00
21502;DHT22;27639;48.674;9.242;2023-04-03T07:41:02;8.50;47.90
21502;DHT22;27639;48.674;9.242;2023-04-03T07:43:28;8.50;47.80
21502;DHT22;27639;48.674;9.242;2023-04-03T07:45:54;8.60;47.70
21502;DHT22;27639;48.674;9.242;2023-04-03T07:48:22;8.60;47.50
21502;DHT22;27639;48.674;9.242;2023-04-03T07:50:48;8.70;47.60
21502;DHT22;27639;48.674;9.242;2023-04-03T07:53:14;8.70;47.70
21502;DHT22;27639;48.674;9.242;2023-04-03T07:55:40;8.80;47.30
21502;DHT22;27639;48.674;9.242;2023-04-03T07:58:13;8.80;47.40
21502;DHT22;27639;48.674;9.242;2023-04-03T08:00:40;8.80;47.20
21502;DHT22;27639;48.674;9.242;2023-04-03T08:03:07;8.90;47.50
21502;DHT22;27639;48.674;9.242;2023-04-03T08:05:37;9.00;47.30
21502;DHT22;27639;48.674;9.242;2023-04-03T08:08:02;9.00;47.50
21502;DHT22;27639;48.674;9.242;2023-04-03T08:10:30;9.00;47.60
21502;DHT22;27639;48.674;9.242;2023-04-03T08:12:55;9.10;47.50
21502;DHT22;27639;48.674;9.242;2023-04-03T08:15:21;9.10;47.80
21502;DHT22;27639;48.674;9.242;2023-04-03T08:17:47;9.20;47.40
21502;DHT22;27639;48.674;9.242;2023-04-03T08:20:13;9.30;47.60
21502;DHT22;27639;48.674;9.242;2023-04-03T08:22:38;9.30;47.10
21502;DHT22;27639;48.674;9.242;2023-04-03T08:25:04;9.40;47.10
21502;DHT22;27639;48.674;9.242;2023-04-03T08:27:30;9.40;46.70
21502;DHT22;27639;48.674;9.242;2023-04-03T08:29:56;9.50;46.00
21502;DHT22;27639;48.674;9.242;2023-04-03T08:32:22;9.50;46.50
21502;DHT22;27639;48.674;9.242;2023-04-03T08:34:48;9.50;46.50
21502;DHT22;27639;48.674;9.242;2023-04-03T08:37:14;9.50;47.20
21502;DHT22;27639;48.674;9.242;2023-04-03T08:39:41;9.50;47.00
21502;DHT22;27639;48.674;9.242;2023-04-03T08:42:31;9.60;47.20
21502;DHT22;27639;48.674;9.242;2023-04-03T08:45:13;9.70;46.60
21502;DHT22;27639;48.674;9.242;2023-04-03T08:48:01;9.80;47.00
21502;DHT22;27639;48.674;9.242;2023-04-03T08:50:36;9.90;46.60
21502;DHT22;27639;48.674;9.242;2023-04-03T08:53:03;10.00;45.50
21502;DHT22;27639;48.674;9.242;2023-04-03T08:55:36;10.00;45.10
21502;DHT22;27639;48.674;9.242;2023-04-03T08:58:04;10.10;44.90
21502;DHT22;27639;48.674;9.242;2023-04-03T09:03:19;10.10;44.60
21502;DHT22;27639;48.674;9.242;2023-04-03T09:05:59;10.00;44.40
21502;DHT22;27639;48.674;9.242;2023-04-03T09:08:29;9.90;45.30
21502;DHT22;27639;48.674;9.242;2023-04-03T09:11:06;9.90;45.80
21502;DHT22;27639;48.674;9.242;2023-04-03T09:13:54;9.80;45.90
21502;DHT22;27639;48.674;9.242;2023-04-03T09:16:57;9.90;45.40
21502;DHT22;27639;48.674;9.242;2023-04-03T09:22:20;9.80;45.20
21502;DHT22;27639;48.674;9.242;2023-04-03T09:24:57;9.60;45.50
21502;DHT22;27639;48.674;9.242;2023-04-03T09:27:24;9.70;45.60
21502;DHT22;27639;48.674;9.242;2023-04-03T09:29:53;9.70;45.80
21502;DHT22;27639;48.674;9.242;2023-04-03T09:32:21;9.80;45.80
21502;DHT22;27639;48.674;9.242;2023-04-03T09:34:51;9.80;45.70
21502;DHT22;27639;48.674;9.242;2023-04-03T09:40:02;9.90;45.10
21502;DHT22;27639;48.674;9.242;2023-04-03T09:42:30;10.10;43.70
21502;DHT22;27639;48.674;9.242;2023-04-03T09:45:18;10.20;43.30
21502;DHT22;27639;48.674;9.242;2023-04-03T09:47:47;10.30;43.00
21502;DHT22;27639;48.674;9.242;2023-04-03T09:52:44;10.40;42.40
21502;DHT22;27639;48.674;9.242;2023-04-03T09:55:31;10.50;42.40
21502;DHT22;27639;48.674;9.242;2023-04-03T09:58:05;10.50;40.40
21502;DHT22;27639;48.674;9.242;2023-04-03T10:00:54;10.50;39.40
21502;DHT22;27639;48.674;9.242;2023-04-03T10:03:39;10.50;39.40
21502;DHT22;27639;48.674;9.242;2023-04-03T10:06:24;10.40;40.90
21502;DHT22;27639;48.674;9.242;2023-04-03T10:09:00;10.40;40.10
21502;DHT22;27639;48.674;9.242;2023-04-03T10:11:28;10.40;38.50
21502;DHT22;27639;48.674;9.242;2023-04-03T10:13:59;10.40;39.30
21502;DHT22;27639;48.674;9.242;2023-04-03T10:16:29;10.40;38.60
21502;DHT22;27639;48.674;9.242;2023-04-03T10:21:50;10.50;39.30
21502;DHT22;27639;48.674;9.242;2023-04-03T10:35:28;10.50;39.90
21502;DHT22;27639;48.674;9.242;2023-04-03T10:43:01;10.50;38.80
21502;DHT22;27639;48.674;9.242;2023-04-03T10:53:45;10.50;40.00
21502;DHT22;27639;48.674;9.242;2023-04-03T10:56:41;10.50;40.70
21502;DHT22;27639;48.674;9.242;2023-04-03T11:01:49;10.50;39.90
21502;DHT22;27639;48.674;9.242;2023-04-03T11:04:19;10.40;40.10
21502;DHT22;27639;48.674;9.242;2023-04-03T11:07:02;10.30;40.40
21502;DHT22;27639;48.674;9.242;2023-04-03T11:09:33;10.30;40.60
21502;DHT22;27639;48.674;9.242;2023-04-03T11:12:15;10.20;40.70
21502;DHT22;27639;48.674;9.242;2023-04-03T11:14:41;10.20;40.90
21502;DHT22;27639;48.674;9.242;2023-04-03T11:17:33;10.20;40.30
21502;DHT22;27639;48.674;9.242;2023-04-03T11:23:05;10.10;40.80
21502;DHT22;27639;48.674;9.242;2023-04-03T11:25:30;10.20;40.90
21502;DHT22;27639;48.674;9.242;2023-04-03T11:27:59;10.10;41.30
21502;DHT22;27639;48.674;9.242;2023-04-03T11:30:30;10.10;41.20
21502;DHT22;27639;48.674;9.242;2023-04-03T11:36:02;10.10;41.00
21502;DHT22;27639;48.674;9.242;2023-04-03T11:38:33;10.10;41.00
21502;DHT22;27639;48.674;9.242;2023-04-03T11:41:02;10.20;41.00
21502;DHT22;27639;48.674;9.242;2023-04-03T11:43:30;10.20;41.10
21502;DHT22;27639;48.674;9.242;2023-04-03T11:46:01;10.20;40.40
21502;DHT22;27639;48.674;9.242;2023-04-03T11:50:55;10.10;40.60
21502;DHT22;27639;48.674;9.242;2023-04-03T11:53:36;10.20;40.40
21502;DHT22;27639;48.674;9.242;2023-04-03T12:01:53;10.20;39.50
21502;DHT22;27639;48.674;9.242;2023-04-03T12:04:22;10.20;39.30
21502;DHT22;27639;48.674;9.242;2023-04-03T12:12:42;10.10;39.20
21502;DHT22;27639;48.674;9.242;2023-04-03T12:17:49;10.10;39.00
21502;DHT22;27639;48.674;9.242;2023-04-03T12:23:33;10.20;38.50
21502;DHT22;27639;48.674;9.242;2023-04-03T12:26:02;10.10;38.40
21502;DHT22;27639;48.674;9.242;2023-04-03T12:28:35;10.10;39.20
21502;DHT22;27639;48.674;9.242;2023-04-03T12:31:02;10.10;39.20
21502;DHT22;27639;48.674;9.242;2023-04-03T12:39:52;10.40;38.90
21502;DHT22;27639;48.674;9.242;2023-04-03T12:45:23;10.50;38.10
21502;DHT22;27639;48.674;9.242;2023-04-03T12:47:50;10.40;38.30
21502;DHT22;27639;48.674;9.242;2023-04-03T12:50:30;10.30;38.40
21502;DHT22;27639;48.674;9.242;2023-04-03T12:53:21;10.30;37.70
21502;DHT22;27639;48.674;9.242;2023-04-03T12:55:56;10.40;37.10
21502;DHT22;27639;48.674;9.242;2023-04-03T12:58:25;10.40;37.20
21502;DHT22;27639;48.674;9.242;2023-04-03T13:01:21;10.50;37.40
21502;DHT22;27639;48.674;9.242;2023-04-03T13:03:54;10.50;37.60
21502;DHT22;27639;48.674;9.242;2023-04-03T13:06:23;10.50;37.10
21502;DHT22;27639;48.674;9.242;2023-04-03T13:08:55;10.50;37.50
21502;DHT22;27639;48.674;9.242;2023-04-03T13:11:29;10.50;37.40
21502;DHT22;27639;48.674;9.242;2023-04-03T13:16:21;10.70;37.50
21502;DHT22;27639;48.674;9.242;2023-04-03T13:18:52;10.80;37.20
21502;DHT22;27639;48.674;9.242;2023-04-03T13:21:24;10.90;36.90
21502;DHT22;27639;48.674;9.242;2023-04-03T13:23:55;10.90;36.50
21502;DHT22;27639;48.674;9.242;2023-04-03T13:26:23;10.90;35.90
21502;DHT22;27639;48.674;9.242;2023-04-03T13:28:50;10.80;36.40
21502;DHT22;27639;48.674;9.242;2023-04-03T13:31:26;10.90;35.80
21502;DHT22;27639;48.674;9.242;2023-04-03T13:34:06;10.80;36.10
21502;DHT22;27639;48.674;9.242;2023-04-03T13:36:44;10.70;36.80
21502;DHT22;27639;48.674;9.242;2023-04-03T13:41:38;10.70;37.00
21502;DHT22;27639;48.674;9.242;2023-04-03T13:46:53;10.70;37.50
21502;DHT22;27639;48.674;9.242;2023-04-03T13:51:52;10.80;37.20
21502;DHT22;27639;48.674;9.242;2023-04-03T13:54:34;10.80;37.30
21502;DHT22;27639;48.674;9.242;2023-04-03T13:57:01;10.80;37.30
21502;DHT22;27639;48.674;9.242;2023-04-03T13:59:33;10.90;36.80
21502;DHT22;27639;48.674;9.242;2023-04-03T14:07:09;10.90;36.60
21502;DHT22;27639;48.674;9.242;2023-04-03T14:09:35;10.90;36.60
21502;DHT22;27639;48.674;9.242;2023-04-03T14:12:06;10.90;36.50
21502;DHT22;27639;48.674;9.242;2023-04-03T14:14:35;11.00;37.00
21502;DHT22;27639;48.674;9.242;2023-04-03T14:17:05;11.00;36.70
21502;DHT22;27639;48.674;9.242;2023-04-03T14:19:35;11.00;36.50
21502;DHT22;27639;48.674;9.242;2023-04-03T14:22:16;11.10;37.00
21502;DHT22;27639;48.674;9.242;2023-04-03T14:24:43;11.30;37.10
21502;DHT22;27639;48.674;9.242;2023-04-03T14:29:43;11.50;35.80
21502;DHT22;27639;48.674;9.242;2023-04-03T14:32:12;11.40;35.70
21502;DHT22;27639;48.674;9.242;2023-04-03T14:34:38;11.30;35.10
21502;DHT22;27639;48.674;9.242;2023-04-03T14:37:05;11.30;34.00
21502;DHT22;27639;48.674;9.242;2023-04-03T14:39:34;11.20;34.20
21502;DHT22;27639;48.674;9.242;2023-04-03T14:42:00;11.10;34.50
21502;DHT22;27639;48.674;9.242;2023-04-03T14:44:25;11.10;34.50
21502;DHT22;27639;48.674;9.242;2023-04-03T14:46:51;11.10;34.70
21502;DHT22;27639;48.674;9.242;2023-04-03T14:49:24;11.10;33.80
21502;DHT22;27639;48.674;9.242;2023-04-03T14:51:50;11.00;34.00
21502;DHT22;27639;48.674;9.242;2023-04-03T14:54:19;11.00;34.00
21502;DHT22;27639;48.674;9.242;2023-04-03T14:56:47;11.00;34.60
21502;DHT22;27639;48.674;9.242;2023-04-03T14:59:13;11.10;34.50
21502;DHT22;27639;48.674;9.242;2023-04-03T15:01:40;11.20;34.20
21502;DHT22;27639;48.674;9.242;2023-04-03T15:04:16;11.20;34.70
21502;DHT22;27639;48.674;9.242;2023-04-03T15:06:43;11.10;35.10
21502;DHT22;27639;48.674;9.242;2023-04-03T15:11:47;10.90;35.60
21502;DHT22;27639;48.674;9.242;2023-04-03T15:14:12;10.90;35.80
21502;DHT22;27639;48.674;9.242;2023-04-03T15:16:38;10.90;35.80
21502;DHT22;27639;48.674;9.242;2023-04-03T15:19:04;10.90;36.20
21502;DHT22;27639;48.674;9.242;2023-04-03T15:21:29;10.90;35.80
21502;DHT22;27639;48.674;9.242;2023-04-03T15:23:55;10.80;35.70
21502;DHT22;27639;48.674;9.242;2023-04-03T15:26:21;10.80;35.80
21502;DHT22;27639;48.674;9.242;2023-04-03T15:28:46;10.80;36.00
21502;DHT22;27639;48.674;9.242;2023-04-03T15:31:12;10.90;35.80
21502;DHT22;27639;48.674;9.242;2023-04-03T15:33:39;10.90;35.50
21502;DHT22;27639;48.674;9.242;2023-04-03T15:36:05;10.80;35.20
21502;DHT22;27639;48.674;9.242;2023-04-03T15:38:30;10.90;35.10
21502;DHT22;27639;48.674;9.242;2023-04-03T15:40:56;10.90;34.80
21502;DHT22;27639;48.674;9.242;2023-04-03T15:43:22;10.80;35.40
21502;DHT22;27639;48.674;9.242;2023-04-03T15:45:48;10.70;35.70
21502;DHT22;27639;48.674;9.242;2023-04-03T15:48:16;10.70;35.70
21502;DHT22;27639;48.674;9.242;2023-04-03T15:50:42;10.70;35.70
21502;DHT22;27639;48.674;9.242;2023-04-03T15:53:08;10.70;35.40
21502;DHT22;27639;48.674;9.242;2023-04-03T15:55:35;10.70;35.60
21502;DHT22;27639;48.674;9.242;2023-04-03T15:58:02;10.60;35.60
21502;DHT22;27639;48.674;9.242;2023-04-03T16:00:28;10.60;36.00
21502;DHT22;27639;48.674;9.242;2023-04-03T16:03:05;10.70;36.20
21502;DHT22;27639;48.674;9.242;2023-04-03T16:05:31;10.70;35.70
21502;DHT22;27639;48.674;9.242;2023-04-03T16:07:58;10.70;35.70
21502;DHT22;27639;48.674;9.242;2023-04-03T16:10:24;10.80;35.50
21502;DHT22;27639;48.674;9.242;2023-04-03T16:12:50;10.80;35.30
21502;DHT22;27639;48.674;9.242;2023-04-03T16:15:16;10.70;35.20
21502;DHT22;27639;48.674;9.242;2023-04-03T16:17:41;10.70;34.60
21502;DHT22;27639;48.674;9.242;2023-04-03T16:20:08;10.70;34.10
21502;DHT22;27639;48.674;9.242;2023-04-03T16:22:34;10.60;34.40
21502;DHT22;27639;48.674;9.242;2023-04-03T16:25:01;10.50;34.70
21502;DHT22;27639;48.674;9.242;2023-04-03T16:27:26;10.50;34.60
21502;DHT22;27639;48.674;9.242;2023-04-03T16:29:59;10.40;34.50
21502;DHT22;27639;48.674;9.242;2023-04-03T16:32:27;10.40;34.90
21502;DHT22;27639;48.674;9.242;2023-04-03T16:34:54;10.30;35.20
21502;DHT22;27639;48.674;9.242;2023-04-03T16:37:19;10.30;35.30
21502;DHT22;27639;48.674;9.242;2023-04-03T16:39:45;10.30;35.40
21502;DHT22;27639;48.674;9.242;2023-04-03T16:42:11;10.40;35.20
21502;DHT22;27639;48.674;9.242;2023-04-03T16:44:37;10.30;35.30
21502;DHT22;27639;48.674;9.242;2023-04-03T16:47:03;10.30;35.40
21502;DHT22;27639;48.674;9.242;2023-04-03T16:49:29;10.40;35.00
21502;DHT22;27639;48.674;9.242;2023-04-03T16:51:58;10.40;35.30
21502;DHT22;27639;48.674;9.242;2023-04-03T16:54:24;10.40;35.00
21502;DHT22;27639;48.674;9.242;2023-04-03T16:56:50;10.40;34.40
21502;DHT22;27639;48.674;9.242;2023-04-03T16:59:15;10.30;34.40
21502;DHT22;27639;48.674;9.242;2023-04-03T17:01:41;10.30;34.90
21502;DHT22;27639;48.674;9.242;2023-04-03T17:04:07;10.30;34.70
21502;DHT22;27639;48.674;9.242;2023-04-03T17:06:32;10.20;34.90
21502;DHT22;27639;48.674;9.242;2023-04-03T17:08:58;10.20;35.00
21502;DHT22;27639;48.674;9.242;2023-04-03T17:11:24;10.10;35.00
21502;DHT22;27639;48.674;9.242;2023-04-03T17:13:50;10.10;34.80
21502;DHT22;27639;48.674;9.242;2023-04-03T17:16:16;10.10;34.70
21502;DHT22;27639;48.674;9.242;2023-04-03T17:18:42;10.10;34.70
21502;DHT22;27639;48.674;9.242;2023-04-03T17:21:08;10.10;34.30
21502;DHT22;27639;48.674;9.242;2023-04-03T17:23:34;10.00;34.30
21502;DHT22;27639;48.674;9.242;2023-04-03T17:26:02;10.10;34.40
21502;DHT22;27639;48.674;9.242;2023-04-03T17:28:28;10.00;34.50